sensor_id;sensor_type;location;lat;lon;timestamp;temperature;humidity
9790;DHT22;4934;50.852;8.098;2022-08-19T00:01:53;15.80;99.90
9790;DHT22;4934;50.852;8.098;2022-08-19T00:04:32;15.80;99.90
9790;DHT22;4934;50.852;8.098;2022-08-19T00:06:58;15.80;99.90
9790;DHT22;4934;50.852;8.098;2022-08-19T00:09:24;15.80;99.90
9790;DHT22;4934;50.852;8.098;2022-08-19T00:11:51;15.90;99.90
9790;DHT22;4934;50.852;8.098;2022-08-19T00:14:18;15.90;99.90
9790;DHT22;4934;50.852;8.098;2022-08-19T00:16:45;15.90;99.90
9790;DHT22;4934;50.852;8.098;2022-08-19T00:19:11;15.90;99.90
9790;DHT22;4934;50.852;8.098;2022-08-19T00:21:37;15.90;99.90
9790;DHT22;4934;50.852;8.098;2022-08-19T00:24:09;15.90;99.90
9790;DHT22;4934;50.852;8.098;2022-08-19T00:26:36;15.90;99.90
9790;DHT22;4934;50.852;8.098;2022-08-19T00:29:04;15.90;99.90
9790;DHT22;4934;50.852;8.098;2022-08-19T00:31:30;15.90;99.90
9790;DHT22;4934;50.852;8.098;2022-08-19T00:33:56;16.00;99.90
9790;DHT22;4934;50.852;8.098;2022-08-19T00:36:22;16.10;99.90
9790;DHT22;4934;50.852;8.098;2022-08-19T00:38:48;16.10;99.90
9790;DHT22;4934;50.852;8.098;2022-08-19T00:41:16;16.10;99.90
9790;DHT22;4934;50.852;8.098;2022-08-19T00:44:05;16.00;99.90
9790;DHT22;4934;50.852;8.098;2022-08-19T00:46:32;15.90;99.90
9790;DHT22;4934;50.852;8.098;2022-08-19T00:49:00;15.90;99.90
9790;DHT22;4934;50.852;8.098;2022-08-19T00:51:30;15.80;99.90
9790;DHT22;4934;50.852;8.098;2022-08-19T00:53:58;15.80;99.90
9790;DHT22;4934;50.852;8.098;2022-08-19T00:56:26;15.70;99.90
9790;DHT22;4934;50.852;8.098;2022-08-19T00:58:55;15.70;99.90
9790;DHT22;4934;50.852;8.098;2022-08-19T01:01:21;15.70;99.90
9790;DHT22;4934;50.852;8.098;2022-08-19T01:03:47;15.70;99.90
9790;DHT22;4934;50.852;8.098;2022-08-19T01:06:13;15.70;99.90
9790;DHT22;4934;50.852;8.098;2022-08-19T01:08:39;15.70;99.90
9790;DHT22;4934;50.852;8.098;2022-08-19T01:11:06;15.70;99.90
9790;DHT22;4934;50.852;8.098;2022-08-19T01:13:33;15.70;99.90
9790;DHT22;4934;50.852;8.098;2022-08-19T01:16:06;15.60;99.90
9790;DHT22;4934;50.852;8.098;2022-08-19T01:18:36;15.60;99.90
9790;DHT22;4934;50.852;8.098;2022-08-19T01:21:09;15.50;99.90
9790;DHT22;4934;50.852;8.098;2022-08-19T01:23:36;15.50;99.90
9790;DHT22;4934;50.852;8.098;2022-08-19T01:26:16;15.40;99.90
9790;DHT22;4934;50.852;8.098;2022-08-19T01:28:44;15.50;99.90
9790;DHT22;4934;50.852;8.098;2022-08-19T01:31:15;15.40;99.90
9790;DHT22;4934;50.852;8.098;2022-08-19T01:33:41;15.40;99.90
9790;DHT22;4934;50.852;8.098;2022-08-19T01:36:11;15.30;99.90
9790;DHT22;4934;50.852;8.098;2022-08-19T01:38:40;15.30;99.90
9790;DHT22;4934;50.852;8.098;2022-08-19T01:41:06;15.30;99.90
9790;DHT22;4934;50.852;8.098;2022-08-19T01:43:33;15.30;99.90
9790;DHT22;4934;50.852;8.098;2022-08-19T01:45:58;15.30;99.90
9790;DHT22;4934;50.852;8.098;2022-08-19T01:48:24;15.30;99.90
9790;DHT22;4934;50.852;8.098;2022-08-19T01:50:50;15.30;99.90
9790;DHT22;4934;50.852;8.098;2022-08-19T01:53:16;15.30;99.90
9790;DHT22;4934;50.852;8.098;2022-08-19T01:55:43;15.20;99.90
9790;DHT22;4934;50.852;8.098;2022-08-19T01:58:16;15.20;99.90
9790;DHT22;4934;50.852;8.098;2022-08-19T02:00:44;15.20;99.90
9790;DHT22;4934;50.852;8.098;2022-08-19T02:03:11;15.10;99.90
9790;DHT22;4934;50.852;8.098;2022-08-19T02:05:38;15.00;99.90
9790;DHT22;4934;50.852;8.098;2022-08-19T02:08:04;15.00;99.90
9790;DHT22;4934;50.852;8.098;2022-08-19T02:10:30;15.00;99.90
9790;DHT22;4934;50.852;8.098;2022-08-19T02:12:57;15.00;99.90
9790;DHT22;4934;50.852;8.098;2022-08-19T02:15:22;14.90;99.90
9790;DHT22;4934;50.852;8.098;2022-08-19T02:17:48;14.90;99.90
9790;DHT22;4934;50.852;8.098;2022-08-19T02:20:15;14.90;99.90
9790;DHT22;4934;50.852;8.098;2022-08-19T02:22:41;14.80;99.90
9790;DHT22;4934;50.852;8.098;2022-08-19T02:25:09;14.80;99.90
9790;DHT22;4934;50.852;8.098;2022-08-19T02:27:35;14.80;99.90
9790;DHT22;4934;50.852;8.098;2022-08-19T02:30:04;14.80;99.90
9790;DHT22;4934;50.852;8.098;2022-08-19T02:32:30;14.70;99.90
9790;DHT22;4934;50.852;8.098;2022-08-19T02:34:56;14.70;99.90
9790;DHT22;4934;50.852;8.098;2022-08-19T02:37:21;14.70;99.90
9790;DHT22;4934;50.852;8.098;2022-08-19T02:40:06;14.70;99.90
9790;DHT22;4934;50.852;8.098;2022-08-19T02:42:32;14.60;99.90
9790;DHT22;4934;50.852;8.098;2022-08-19T02:44:58;14.60;99.90
9790;DHT22;4934;50.852;8.098;2022-08-19T02:47:23;14.70;99.90
9790;DHT22;4934;50.852;8.098;2022-08-19T02:49:49;14.70;99.90
9790;DHT22;4934;50.852;8.098;2022-08-19T02:52:17;14.60;99.90
9790;DHT22;4934;50.852;8.098;2022-08-19T02:54:43;14.50;99.90
9790;DHT22;4934;50.852;8.098;2022-08-19T02:57:09;14.60;99.90
9790;DHT22;4934;50.852;8.098;2022-08-19T02:59:35;14.50;99.90
9790;DHT22;4934;50.852;8.098;2022-08-19T03:02:01;14.40;99.90
9790;DHT22;4934;50.852;8.098;2022-08-19T03:04:26;14.40;99.90
9790;DHT22;4934;50.852;8.098;2022-08-19T03:06:52;14.40;99.90
9790;DHT22;4934;50.852;8.098;2022-08-19T03:09:19;14.40;99.90
9790;DHT22;4934;50.852;8.098;2022-08-19T03:11:45;14.30;99.90
9790;DHT22;4934;50.852;8.098;2022-08-19T03:14:12;14.30;99.90
9790;DHT22;4934;50.852;8.098;2022-08-19T03:16:56;14.20;99.90
9790;DHT22;4934;50.852;8.098;2022-08-19T03:19:22;14.20;99.90
9790;DHT22;4934;50.852;8.098;2022-08-19T03:21:48;14.10;99.90
9790;DHT22;4934;50.852;8.098;2022-08-19T03:24:15;14.20;99.90
9790;DHT22;4934;50.852;8.098;2022-08-19T03:26:47;14.10;99.90
9790;DHT22;4934;50.852;8.098;2022-08-19T03:29:13;14.10;99.90
9790;DHT22;4934;50.852;8.098;2022-08-19T03:31:40;14.10;99.90
9790;DHT22;4934;50.852;8.098;2022-08-19T03:34:06;14.00;99.90
9790;DHT22;4934;50.852;8.098;2022-08-19T03:36:32;14.00;99.90
9790;DHT22;4934;50.852;8.098;2022-08-19T03:38:59;13.90;99.90
9790;DHT22;4934;50.852;8.098;2022-08-19T03:41:31;13.90;99.90
9790;DHT22;4934;50.852;8.098;2022-08-19T03:43:57;13.90;99.90
9790;DHT22;4934;50.852;8.098;2022-08-19T03:46:29;13.90;99.90
9790;DHT22;4934;50.852;8.098;2022-08-19T03:48:57;13.90;99.90
9790;DHT22;4934;50.852;8.098;2022-08-19T03:51:29;13.90;99.90
9790;DHT22;4934;50.852;8.098;2022-08-19T03:53:57;13.90;99.90
9790;DHT22;4934;50.852;8.098;2022-08-19T03:56:24;13.80;99.90
9790;DHT22;4934;50.852;8.098;2022-08-19T03:58:51;13.70;99.90
9790;DHT22;4934;50.852;8.098;2022-08-19T04:01:21;13.70;99.90
9790;DHT22;4934;50.852;8.098;2022-08-19T04:03:48;13.70;99.90
9790;DHT22;4934;50.852;8.098;2022-08-19T04:06:20;13.70;99.90
9790;DHT22;4934;50.852;8.098;2022-08-19T04:08:47;13.60;99.90
9790;DHT22;4934;50.852;8.098;2022-08-19T04:11:17;13.60;99.90
9790;DHT22;4934;50.852;8.098;2022-08-19T04:13:43;13.60;99.90
9790;DHT22;4934;50.852;8.098;2022-08-19T04:16:10;13.50;99.90
9790;DHT22;4934;50.852;8.098;2022-08-19T04:18:38;13.60;99.90
9790;DHT22;4934;50.852;8.098;2022-08-19T04:21:04;13.70;99.90
9790;DHT22;4934;50.852;8.098;2022-08-19T04:23:31;13.60;99.90
9790;DHT22;4934;50.852;8.098;2022-08-19T04:25:57;13.60;99.90
9790;DHT22;4934;50.852;8.098;2022-08-19T04:28:23;13.50;99.90
9790;DHT22;4934;50.852;8.098;2022-08-19T04:30:52;13.40;99.90
9790;DHT22;4934;50.852;8.098;2022-08-19T04:33:20;13.40;99.90
9790;DHT22;4934;50.852;8.098;2022-08-19T04:35:49;13.40;99.90
9790;DHT22;4934;50.852;8.098;2022-08-19T04:38:16;13.40;99.90
9790;DHT22;4934;50.852;8.098;2022-08-19T04:40:45;13.40;99.90
9790;DHT22;4934;50.852;8.098;2022-08-19T04:43:30;13.40;99.90
9790;DHT22;4934;50.852;8.098;2022-08-19T04:45:56;13.40;99.90
9790;DHT22;4934;50.852;8.098;2022-08-19T04:48:22;13.50;99.90
9790;DHT22;4934;50.852;8.098;2022-08-19T04:50:55;13.50;99.90
9790;DHT22;4934;50.852;8.098;2022-08-19T04:53:33;13.50;99.90
9790;DHT22;4934;50.852;8.098;2022-08-19T04:56:03;13.50;99.90
9790;DHT22;4934;50.852;8.098;2022-08-19T04:58:29;13.50;99.90
9790;DHT22;4934;50.852;8.098;2022-08-19T05:00:55;13.50;99.90
9790;DHT22;4934;50.852;8.098;2022-08-19T05:03:21;13.60;99.90
9790;DHT22;4934;50.852;8.098;2022-08-19T05:05:48;13.70;99.90
9790;DHT22;4934;50.852;8.098;2022-08-19T05:08:16;13.70;99.90
9790;DHT22;4934;50.852;8.098;2022-08-19T05:10:50;13.80;99.90
9790;DHT22;4934;50.852;8.098;2022-08-19T05:13:17;13.90;99.90
9790;DHT22;4934;50.852;8.098;2022-08-19T05:15:45;13.90;99.90
9790;DHT22;4934;50.852;8.098;2022-08-19T05:18:18;13.90;99.90
9790;DHT22;4934;50.852;8.098;2022-08-19T05:21:10;14.00;99.90
9790;DHT22;4934;50.852;8.098;2022-08-19T05:23:54;14.10;99.90
9790;DHT22;4934;50.852;8.098;2022-08-19T05:26:20;14.20;99.90
9790;DHT22;4934;50.852;8.098;2022-08-19T05:28:46;14.20;99.90
9790;DHT22;4934;50.852;8.098;2022-08-19T05:31:11;14.20;99.90
9790;DHT22;4934;50.852;8.098;2022-08-19T05:33:38;14.30;99.90
9790;DHT22;4934;50.852;8.098;2022-08-19T05:36:05;14.40;99.90
9790;DHT22;4934;50.852;8.098;2022-08-19T05:38:33;14.40;99.90
9790;DHT22;4934;50.852;8.098;2022-08-19T05:40:59;14.40;99.90
9790;DHT22;4934;50.852;8.098;2022-08-19T05:43:24;14.50;99.90
9790;DHT22;4934;50.852;8.098;2022-08-19T05:45:50;14.60;99.90
9790;DHT22;4934;50.852;8.098;2022-08-19T05:48:16;14.70;99.90
9790;DHT22;4934;50.852;8.098;2022-08-19T05:50:51;14.80;99.90
9790;DHT22;4934;50.852;8.098;2022-08-19T05:53:19;14.80;99.90
9790;DHT22;4934;50.852;8.098;2022-08-19T05:55:45;14.80;99.90
9790;DHT22;4934;50.852;8.098;2022-08-19T05:58:11;14.90;99.90
9790;DHT22;4934;50.852;8.098;2022-08-19T06:00:37;14.90;99.90
9790;DHT22;4934;50.852;8.098;2022-08-19T06:03:03;14.90;99.90
9790;DHT22;4934;50.852;8.098;2022-08-19T06:05:30;14.80;99.90
9790;DHT22;4934;50.852;8.098;2022-08-19T06:07:56;14.90;99.90
9790;DHT22;4934;50.852;8.098;2022-08-19T06:10:22;14.90;99.90
9790;DHT22;4934;50.852;8.098;2022-08-19T06:12:48;15.10;99.90
9790;DHT22;4934;50.852;8.098;2022-08-19T06:15:14;15.20;99.90
9790;DHT22;4934;50.852;8.098;2022-08-19T06:17:41;15.20;99.90
9790;DHT22;4934;50.852;8.098;2022-08-19T06:20:11;15.20;99.90
9790;DHT22;4934;50.852;8.098;2022-08-19T06:22:40;15.30;99.90
9790;DHT22;4934;50.852;8.098;2022-08-19T06:25:07;15.30;99.90
9790;DHT22;4934;50.852;8.098;2022-08-19T06:27:34;15.30;99.90
9790;DHT22;4934;50.852;8.098;2022-08-19T06:30:02;15.40;99.90
9790;DHT22;4934;50.852;8.098;2022-08-19T06:32:27;15.40;99.90
9790;DHT22;4934;50.852;8.098;2022-08-19T06:34:53;15.50;99.90
9790;DHT22;4934;50.852;8.098;2022-08-19T06:37:20;15.50;99.90
9790;DHT22;4934;50.852;8.098;2022-08-19T06:39:48;15.70;99.90
9790;DHT22;4934;50.852;8.098;2022-08-19T06:42:14;15.90;99.90
9790;DHT22;4934;50.852;8.098;2022-08-19T06:44:45;16.10;99.90
9790;DHT22;4934;50.852;8.098;2022-08-19T06:47:14;16.20;99.90
9790;DHT22;4934;50.852;8.098;2022-08-19T06:49:41;16.30;99.90
9790;DHT22;4934;50.852;8.098;2022-08-19T06:52:09;16.50;99.90
9790;DHT22;4934;50.852;8.098;2022-08-19T06:54:38;16.60;99.90
9790;DHT22;4934;50.852;8.098;2022-08-19T06:57:05;16.50;99.90
9790;DHT22;4934;50.852;8.098;2022-08-19T06:59:32;16.50;99.90
9790;DHT22;4934;50.852;8.098;2022-08-19T07:02:02;16.60;99.90
9790;DHT22;4934;50.852;8.098;2022-08-19T07:04:31;16.80;99.90
9790;DHT22;4934;50.852;8.098;2022-08-19T07:07:06;16.80;99.90
9790;DHT22;4934;50.852;8.098;2022-08-19T07:09:33;16.90;99.90
9790;DHT22;4934;50.852;8.098;2022-08-19T07:11:59;16.90;99.90
9790;DHT22;4934;50.852;8.098;2022-08-19T07:14:27;17.10;99.90
9790;DHT22;4934;50.852;8.098;2022-08-19T07:16:53;17.20;99.90
9790;DHT22;4934;50.852;8.098;2022-08-19T07:19:21;17.40;99.90
9790;DHT22;4934;50.852;8.098;2022-08-19T07:21:49;17.60;99.90
9790;DHT22;4934;50.852;8.098;2022-08-19T07:24:17;17.90;99.90
9790;DHT22;4934;50.852;8.098;2022-08-19T07:26:42;18.20;99.90
9790;DHT22;4934;50.852;8.098;2022-08-19T07:29:10;18.20;99.90
9790;DHT22;4934;50.852;8.098;2022-08-19T07:31:36;18.30;99.90
9790;DHT22;4934;50.852;8.098;2022-08-19T07:34:04;18.20;99.90
9790;DHT22;4934;50.852;8.098;2022-08-19T07:36:34;18.40;99.90
9790;DHT22;4934;50.852;8.098;2022-08-19T07:39:05;18.60;99.90
9790;DHT22;4934;50.852;8.098;2022-08-19T07:41:31;18.80;99.90
9790;DHT22;4934;50.852;8.098;2022-08-19T07:43:59;18.90;99.90
9790;DHT22;4934;50.852;8.098;2022-08-19T07:46:34;19.00;99.90
9790;DHT22;4934;50.852;8.098;2022-08-19T07:49:01;19.20;99.90
9790;DHT22;4934;50.852;8.098;2022-08-19T07:51:28;19.50;99.90
9790;DHT22;4934;50.852;8.098;2022-08-19T07:53:54;19.60;99.90
9790;DHT22;4934;50.852;8.098;2022-08-19T07:56:23;19.90;99.90
9790;DHT22;4934;50.852;8.098;2022-08-19T07:58:50;20.20;99.90
9790;DHT22;4934;50.852;8.098;2022-08-19T08:01:24;20.30;99.90
9790;DHT22;4934;50.852;8.098;2022-08-19T08:03:56;20.40;99.90
9790;DHT22;4934;50.852;8.098;2022-08-19T08:06:43;20.80;99.90
9790;DHT22;4934;50.852;8.098;2022-08-19T08:09:32;20.90;99.90
9790;DHT22;4934;50.852;8.098;2022-08-19T08:12:14;21.20;99.90
9790;DHT22;4934;50.852;8.098;2022-08-19T08:14:44;21.20;99.90
9790;DHT22;4934;50.852;8.098;2022-08-19T08:17:25;21.20;99.90
9790;DHT22;4934;50.852;8.098;2022-08-19T08:19:51;21.10;99.90
9790;DHT22;4934;50.852;8.098;2022-08-19T08:22:19;21.30;99.90
9790;DHT22;4934;50.852;8.098;2022-08-19T08:25:06;21.40;99.90
9790;DHT22;4934;50.852;8.098;2022-08-19T08:27:36;21.60;99.90
9790;DHT22;4934;50.852;8.098;2022-08-19T08:30:03;21.70;99.90
9790;DHT22;4934;50.852;8.098;2022-08-19T08:32:30;21.70;99.90
9790;DHT22;4934;50.852;8.098;2022-08-19T08:34:55;21.90;99.90
9790;DHT22;4934;50.852;8.098;2022-08-19T08:37:22;21.70;99.90
9790;DHT22;4934;50.852;8.098;2022-08-19T08:39:47;21.80;99.90
9790;DHT22;4934;50.852;8.098;2022-08-19T08:42:21;21.80;99.90
9790;DHT22;4934;50.852;8.098;2022-08-19T08:45:08;21.60;99.90
9790;DHT22;4934;50.852;8.098;2022-08-19T08:47:40;21.70;99.90
9790;DHT22;4934;50.852;8.098;2022-08-19T08:50:42;21.50;99.90
9790;DHT22;4934;50.852;8.098;2022-08-19T08:53:07;21.70;99.90
9790;DHT22;4934;50.852;8.098;2022-08-19T08:55:36;21.40;99.90
9790;DHT22;4934;50.852;8.098;2022-08-19T08:58:24;21.70;99.90
9790;DHT22;4934;50.852;8.098;2022-08-19T09:00:54;22.00;99.90
9790;DHT22;4934;50.852;8.098;2022-08-19T09:03:31;22.40;99.90
9790;DHT22;4934;50.852;8.098;2022-08-19T09:06:01;22.20;99.90
9790;DHT22;4934;50.852;8.098;2022-08-19T09:11:24;22.20;99.90
9790;DHT22;4934;50.852;8.098;2022-08-19T09:16:54;22.10;99.90
9790;DHT22;4934;50.852;8.098;2022-08-19T09:19:34;22.50;99.90
9790;DHT22;4934;50.852;8.098;2022-08-19T09:22:00;22.80;99.90
9790;DHT22;4934;50.852;8.098;2022-08-19T09:24:33;23.20;99.90
9790;DHT22;4934;50.852;8.098;2022-08-19T09:27:01;23.20;99.90
9790;DHT22;4934;50.852;8.098;2022-08-19T09:29:36;23.60;99.90
9790;DHT22;4934;50.852;8.098;2022-08-19T09:32:05;23.30;99.90
9790;DHT22;4934;50.852;8.098;2022-08-19T09:34:34;23.10;99.90
9790;DHT22;4934;50.852;8.098;2022-08-19T09:37:00;23.30;99.90
9790;DHT22;4934;50.852;8.098;2022-08-19T09:39:26;23.60;99.90
9790;DHT22;4934;50.852;8.098;2022-08-19T09:41:53;24.10;99.90
9790;DHT22;4934;50.852;8.098;2022-08-19T09:44:22;24.30;99.90
9790;DHT22;4934;50.852;8.098;2022-08-19T09:46:49;23.90;99.90
9790;DHT22;4934;50.852;8.098;2022-08-19T09:49:20;23.70;99.90
9790;DHT22;4934;50.852;8.098;2022-08-19T09:51:58;23.80;99.90
9790;DHT22;4934;50.852;8.098;2022-08-19T09:54:29;24.20;99.90
9790;DHT22;4934;50.852;8.098;2022-08-19T09:56:57;24.70;99.90
9790;DHT22;4934;50.852;8.098;2022-08-19T09:59:23;25.10;99.90
9790;DHT22;4934;50.852;8.098;2022-08-19T10:01:50;25.40;99.90
9790;DHT22;4934;50.852;8.098;2022-08-19T10:04:18;25.00;99.90
9790;DHT22;4934;50.852;8.098;2022-08-19T10:06:55;24.40;99.90
9790;DHT22;4934;50.852;8.098;2022-08-19T10:09:27;24.00;99.90
9790;DHT22;4934;50.852;8.098;2022-08-19T10:11:55;24.00;99.90
9790;DHT22;4934;50.852;8.098;2022-08-19T10:14:35;23.80;99.90
9790;DHT22;4934;50.852;8.098;2022-08-19T10:17:02;24.20;99.90
9790;DHT22;4934;50.852;8.098;2022-08-19T10:19:38;24.70;99.90
9790;DHT22;4934;50.852;8.098;2022-08-19T10:22:06;25.10;99.90
9790;DHT22;4934;50.852;8.098;2022-08-19T10:24:33;25.50;99.90
9790;DHT22;4934;50.852;8.098;2022-08-19T10:27:01;25.70;99.90
9790;DHT22;4934;50.852;8.098;2022-08-19T10:29:31;25.90;99.90
9790;DHT22;4934;50.852;8.098;2022-08-19T10:31:58;24.60;99.90
9790;DHT22;4934;50.852;8.098;2022-08-19T10:34:30;24.80;99.90
9790;DHT22;4934;50.852;8.098;2022-08-19T10:36:56;24.70;99.90
9790;DHT22;4934;50.852;8.098;2022-08-19T10:39:24;24.60;99.90
9790;DHT22;4934;50.852;8.098;2022-08-19T10:41:56;24.50;99.90
9790;DHT22;4934;50.852;8.098;2022-08-19T10:44:22;24.60;99.90
9790;DHT22;4934;50.852;8.098;2022-08-19T10:46:49;24.80;99.90
9790;DHT22;4934;50.852;8.098;2022-08-19T10:49:18;25.00;99.90
9790;DHT22;4934;50.852;8.098;2022-08-19T10:51:45;25.20;99.90
9790;DHT22;4934;50.852;8.098;2022-08-19T10:54:29;25.50;99.90
9790;DHT22;4934;50.852;8.098;2022-08-19T10:57:16;25.70;99.90
9790;DHT22;4934;50.852;8.098;2022-08-19T10:59:41;25.40;99.90
9790;DHT22;4934;50.852;8.098;2022-08-19T11:02:09;25.50;99.90
9790;DHT22;4934;50.852;8.098;2022-08-19T11:04:38;25.70;99.90
9790;DHT22;4934;50.852;8.098;2022-08-19T11:07:05;25.80;99.90
9790;DHT22;4934;50.852;8.098;2022-08-19T11:10:00;25.70;99.90
9790;DHT22;4934;50.852;8.098;2022-08-19T11:12:26;25.60;99.90
9790;DHT22;4934;50.852;8.098;2022-08-19T11:15:14;25.50;99.90
9790;DHT22;4934;50.852;8.098;2022-08-19T11:17:44;25.40;99.90
9790;DHT22;4934;50.852;8.098;2022-08-19T11:20:29;25.60;99.90
9790;DHT22;4934;50.852;8.098;2022-08-19T11:23:00;25.20;99.90
9790;DHT22;4934;50.852;8.098;2022-08-19T11:25:27;25.20;99.90
9790;DHT22;4934;50.852;8.098;2022-08-19T11:28:12;25.40;99.90
9790;DHT22;4934;50.852;8.098;2022-08-19T11:30:39;25.60;99.90
9790;DHT22;4934;50.852;8.098;2022-08-19T11:33:06;25.80;99.90
9790;DHT22;4934;50.852;8.098;2022-08-19T11:35:31;26.20;99.90
9790;DHT22;4934;50.852;8.098;2022-08-19T11:37:59;26.50;99.90
9790;DHT22;4934;50.852;8.098;2022-08-19T11:40:27;25.70;99.90
9790;DHT22;4934;50.852;8.098;2022-08-19T11:42:53;25.90;99.90
9790;DHT22;4934;50.852;8.098;2022-08-19T11:45:22;25.90;99.90
9790;DHT22;4934;50.852;8.098;2022-08-19T11:47:48;25.70;99.90
9790;DHT22;4934;50.852;8.098;2022-08-19T11:50:15;25.90;99.90
9790;DHT22;4934;50.852;8.098;2022-08-19T11:52:43;25.30;99.90
9790;DHT22;4934;50.852;8.098;2022-08-19T11:55:14;24.80;99.90
9790;DHT22;4934;50.852;8.098;2022-08-19T11:57:39;24.70;99.90
9790;DHT22;4934;50.852;8.098;2022-08-19T12:00:07;24.70;99.90
9790;DHT22;4934;50.852;8.098;2022-08-19T12:02:33;24.80;99.90
9790;DHT22;4934;50.852;8.098;2022-08-19T12:04:59;25.20;99.90
9790;DHT22;4934;50.852;8.098;2022-08-19T12:07:28;25.40;99.90
9790;DHT22;4934;50.852;8.098;2022-08-19T12:09:56;25.80;99.90
9790;DHT22;4934;50.852;8.098;2022-08-19T12:12:25;25.80;99.90
9790;DHT22;4934;50.852;8.098;2022-08-19T12:14:52;26.10;99.90
9790;DHT22;4934;50.852;8.098;2022-08-19T12:17:31;25.90;99.90
9790;DHT22;4934;50.852;8.098;2022-08-19T12:19:56;25.70;99.90
9790;DHT22;4934;50.852;8.098;2022-08-19T12:22:22;25.50;99.90
9790;DHT22;4934;50.852;8.098;2022-08-19T12:24:48;25.20;99.90
9790;DHT22;4934;50.852;8.098;2022-08-19T12:27:18;25.10;99.90
9790;DHT22;4934;50.852;8.098;2022-08-19T12:29:45;25.20;99.90
9790;DHT22;4934;50.852;8.098;2022-08-19T12:32:11;25.00;99.90
9790;DHT22;4934;50.852;8.098;2022-08-19T12:34:36;25.30;99.90
9790;DHT22;4934;50.852;8.098;2022-08-19T12:37:04;25.40;99.90
9790;DHT22;4934;50.852;8.098;2022-08-19T12:39:33;25.50;99.90
9790;DHT22;4934;50.852;8.098;2022-08-19T12:42:02;25.70;99.90
9790;DHT22;4934;50.852;8.098;2022-08-19T12:44:33;25.60;99.90
9790;DHT22;4934;50.852;8.098;2022-08-19T12:47:02;25.60;99.90
9790;DHT22;4934;50.852;8.098;2022-08-19T12:49:32;25.50;99.90
9790;DHT22;4934;50.852;8.098;2022-08-19T12:52:03;25.50;99.90
9790;DHT22;4934;50.852;8.098;2022-08-19T12:54:31;26.00;99.90
9790;DHT22;4934;50.852;8.098;2022-08-19T12:56:59;26.20;99.90
9790;DHT22;4934;50.852;8.098;2022-08-19T12:59:26;26.50;99.90
9790;DHT22;4934;50.852;8.098;2022-08-19T13:01:54;26.70;99.90
9790;DHT22;4934;50.852;8.098;2022-08-19T13:04:20;26.40;99.90
9790;DHT22;4934;50.852;8.098;2022-08-19T13:06:46;26.30;99.90
9790;DHT22;4934;50.852;8.098;2022-08-19T13:09:16;26.70;99.90
9790;DHT22;4934;50.852;8.098;2022-08-19T13:11:42;26.90;99.90
9790;DHT22;4934;50.852;8.098;2022-08-19T13:14:08;27.20;99.90
9790;DHT22;4934;50.852;8.098;2022-08-19T13:16:36;27.30;99.90
9790;DHT22;4934;50.852;8.098;2022-08-19T13:19:04;27.50;99.90
9790;DHT22;4934;50.852;8.098;2022-08-19T13:21:33;27.20;99.90
9790;DHT22;4934;50.852;8.098;2022-08-19T13:24:00;26.90;99.90
9790;DHT22;4934;50.852;8.098;2022-08-19T13:26:28;26.90;99.90
9790;DHT22;4934;50.852;8.098;2022-08-19T13:28:53;26.90;99.90
9790;DHT22;4934;50.852;8.098;2022-08-19T13:31:40;26.80;99.90
9790;DHT22;4934;50.852;8.098;2022-08-19T13:34:46;26.40;99.90
9790;DHT22;4934;50.852;8.098;2022-08-19T13:37:13;26.70;99.90
9790;DHT22;4934;50.852;8.098;2022-08-19T13:39:38;26.40;99.90
9790;DHT22;4934;50.852;8.098;2022-08-19T13:42:04;26.40;99.90
9790;DHT22;4934;50.852;8.098;2022-08-19T13:44:31;26.50;99.90
9790;DHT22;4934;50.852;8.098;2022-08-19T13:47:02;26.30;99.90
9790;DHT22;4934;50.852;8.098;2022-08-19T13:49:31;26.00;99.90
9790;DHT22;4934;50.852;8.098;2022-08-19T13:51:57;25.90;99.90
9790;DHT22;4934;50.852;8.098;2022-08-19T13:54:23;26.00;99.90
9790;DHT22;4934;50.852;8.098;2022-08-19T13:56:48;25.90;99.90
9790;DHT22;4934;50.852;8.098;2022-08-19T13:59:15;25.70;99.90
9790;DHT22;4934;50.852;8.098;2022-08-19T14:01:41;25.90;99.90
9790;DHT22;4934;50.852;8.098;2022-08-19T14:04:07;25.50;99.90
9790;DHT22;4934;50.852;8.098;2022-08-19T14:06:36;25.50;99.90
9790;DHT22;4934;50.852;8.098;2022-08-19T14:09:04;25.20;99.90
9790;DHT22;4934;50.852;8.098;2022-08-19T14:11:31;25.20;99.90
9790;DHT22;4934;50.852;8.098;2022-08-19T14:13:56;25.10;99.90
9790;DHT22;4934;50.852;8.098;2022-08-19T14:16:22;25.10;99.90
9790;DHT22;4934;50.852;8.098;2022-08-19T14:18:49;25.20;99.90
9790;DHT22;4934;50.852;8.098;2022-08-19T14:21:17;25.00;99.90
9790;DHT22;4934;50.852;8.098;2022-08-19T14:23:52;24.80;99.90
9790;DHT22;4934;50.852;8.098;2022-08-19T14:26:19;24.90;99.90
9790;DHT22;4934;50.852;8.098;2022-08-19T14:28:45;24.90;99.90
9790;DHT22;4934;50.852;8.098;2022-08-19T14:31:13;25.00;99.90
9790;DHT22;4934;50.852;8.098;2022-08-19T14:33:42;25.10;99.90
9790;DHT22;4934;50.852;8.098;2022-08-19T14:36:08;25.20;99.90
9790;DHT22;4934;50.852;8.098;2022-08-19T14:38:33;25.20;99.90
9790;DHT22;4934;50.852;8.098;2022-08-19T14:41:08;25.40;99.90
9790;DHT22;4934;50.852;8.098;2022-08-19T14:43:34;25.60;99.90
9790;DHT22;4934;50.852;8.098;2022-08-19T14:45:59;25.40;99.90
9790;DHT22;4934;50.852;8.098;2022-08-19T14:48:25;25.50;99.90
9790;DHT22;4934;50.852;8.098;2022-08-19T14:50:51;25.70;99.90
9790;DHT22;4934;50.852;8.098;2022-08-19T14:53:20;25.90;99.90
9790;DHT22;4934;50.852;8.098;2022-08-19T14:55:46;26.10;99.90
9790;DHT22;4934;50.852;8.098;2022-08-19T14:58:12;25.80;99.90
9790;DHT22;4934;50.852;8.098;2022-08-19T15:00:38;26.00;99.90
9790;DHT22;4934;50.852;8.098;2022-08-19T15:03:04;25.70;99.90
9790;DHT22;4934;50.852;8.098;2022-08-19T15:05:30;25.90;99.90
9790;DHT22;4934;50.852;8.098;2022-08-19T15:07:55;26.00;99.90
9790;DHT22;4934;50.852;8.098;2022-08-19T15:10:22;25.70;99.90
9790;DHT22;4934;50.852;8.098;2022-08-19T15:12:48;25.80;99.90
9790;DHT22;4934;50.852;8.098;2022-08-19T15:15:15;26.00;99.90
9790;DHT22;4934;50.852;8.098;2022-08-19T15:17:43;26.00;99.90
9790;DHT22;4934;50.852;8.098;2022-08-19T15:20:12;26.10;99.90
9790;DHT22;4934;50.852;8.098;2022-08-19T15:22:39;25.90;99.90
9790;DHT22;4934;50.852;8.098;2022-08-19T15:25:06;25.90;99.90
9790;DHT22;4934;50.852;8.098;2022-08-19T15:27:33;25.90;99.90
9790;DHT22;4934;50.852;8.098;2022-08-19T15:30:01;25.90;99.90
9790;DHT22;4934;50.852;8.098;2022-08-19T15:32:26;26.30;99.90
9790;DHT22;4934;50.852;8.098;2022-08-19T15:34:53;26.60;99.90
9790;DHT22;4934;50.852;8.098;2022-08-19T15:37:23;26.20;99.90
9790;DHT22;4934;50.852;8.098;2022-08-19T15:39:50;26.50;99.90
9790;DHT22;4934;50.852;8.098;2022-08-19T15:42:16;26.80;99.90
9790;DHT22;4934;50.852;8.098;2022-08-19T15:44:42;26.90;99.90
9790;DHT22;4934;50.852;8.098;2022-08-19T15:47:08;26.90;99.90
9790;DHT22;4934;50.852;8.098;2022-08-19T15:49:37;26.50;99.90
9790;DHT22;4934;50.852;8.098;2022-08-19T15:52:03;26.60;99.90
9790;DHT22;4934;50.852;8.098;2022-08-19T15:54:30;26.20;99.90
9790;DHT22;4934;50.852;8.098;2022-08-19T15:56:56;26.10;99.90
9790;DHT22;4934;50.852;8.098;2022-08-19T15:59:41;25.70;99.90
9790;DHT22;4934;50.852;8.098;2022-08-19T16:02:27;25.90;99.90
9790;DHT22;4934;50.852;8.098;2022-08-19T16:05:15;26.20;99.90
9790;DHT22;4934;50.852;8.098;2022-08-19T16:07:59;26.00;99.90
9790;DHT22;4934;50.852;8.098;2022-08-19T16:10:27;26.10;99.90
9790;DHT22;4934;50.852;8.098;2022-08-19T16:12:52;26.10;99.90
9790;DHT22;4934;50.852;8.098;2022-08-19T16:15:20;25.90;99.90
9790;DHT22;4934;50.852;8.098;2022-08-19T16:17:46;26.10;99.90
9790;DHT22;4934;50.852;8.098;2022-08-19T16:20:13;26.50;99.90